UAE1KM OMDB-EGCC
Flight info
| Callsign | UAE1KM |
|---|---|
| Flight time | N/A |
| Altitude | 34000 |
| Route | ANVIX R401 GIDIS G783 RIGIL M628 PEKEM DCT MEDPO DCT ITRUX Y511 PMA Z712 WEJ/N0485F360 L677 CVO L617 TANSA UL613 KOR DCT DIMIS DCT VAKSU DCT SPL/N0468F380 DCT ZDA DCT PEVAL DCT LAMPO DCT GUNGO DCT SAFFA DCT ELMUR DCT RIPUS L613 HOC DCT LUL DCT RLP DCT ROTSI DCT KOTUN DCT AMAXA DCT VESAN DCT RATUK DCT SOVAT L613 SANDY UN57 WELIN T420 ELVOS |
| Aircraft | B77W/H-SDE2E3GHIJ1J3J4J5M1P2RWXYZ/LB1D1 |
Departure
| Time | 2026-05-05 22:12 |
|---|---|
| Airport | Dubai International Airport (OMDB) |
Arrival
| Time | N/A |
|---|---|
| Airport | Manchester Airport (EGCC) |
| Time | Latitude | Longitude | Altitude | Speed | Heading |
|---|---|---|---|---|---|
| 2026-05-05 21:31 | 25.24736 | 55.36157 | 27 ft | 0 kts | 31° |
| 2026-05-05 21:55 | 25.24725 | 55.36150 | 26 ft | 2 kts | 31° |
| 2026-05-05 21:56 | 25.24712 | 55.36141 | 26 ft | 2 kts | 31° |
| 2026-05-05 21:56 | 25.24699 | 55.36132 | 26 ft | 2 kts | 42° |
| 2026-05-05 21:56 | 25.24690 | 55.36120 | 26 ft | 2 kts | 63° |
| 2026-05-05 21:56 | 25.24685 | 55.36104 | 26 ft | 2 kts | 79° |
| 2026-05-05 21:57 | 25.24684 | 55.36087 | 26 ft | 2 kts | 97° |
| 2026-05-05 21:57 | 25.24687 | 55.36071 | 26 ft | 2 kts | 114° |
| 2026-05-05 21:57 | 25.24691 | 55.36063 | 26 ft | 0 kts | 123° |
| 2026-05-05 21:57 | 25.24682 | 55.36083 | 26 ft | 6 kts | 118° |
| 2026-05-05 21:58 | 25.24654 | 55.36133 | 26 ft | 7 kts | 121° |
| 2026-05-05 21:58 | 25.24633 | 55.36172 | 27 ft | 3 kts | 121° |
| 2026-05-05 21:58 | 25.24629 | 55.36179 | 26 ft | 0 kts | 121° |
| 2026-05-05 22:02 | 25.24628 | 55.36180 | 26 ft | 1 kts | 121° |
| 2026-05-05 22:03 | 25.24614 | 55.36206 | 26 ft | 6 kts | 122° |
| 2026-05-05 22:03 | 25.24575 | 55.36275 | 26 ft | 13 kts | 122° |
| 2026-05-05 22:03 | 25.24516 | 55.36380 | 27 ft | 16 kts | 121° |
| 2026-05-05 22:03 | 25.24464 | 55.36479 | 27 ft | 13 kts | 112° |
| 2026-05-05 22:04 | 25.24449 | 55.36574 | 27 ft | 10 kts | 82° |
| 2026-05-05 22:04 | 25.24470 | 55.36634 | 30 ft | 6 kts | 56° |
| 2026-05-05 22:04 | 25.24498 | 55.36670 | 31 ft | 6 kts | 41° |
| 2026-05-05 22:04 | 25.24546 | 55.36705 | 31 ft | 10 kts | 30° |
| 2026-05-05 22:05 | 25.24618 | 55.36753 | 31 ft | 13 kts | 31° |
| 2026-05-05 22:05 | 25.24693 | 55.36804 | 32 ft | 11 kts | 32° |
| 2026-05-05 22:05 | 25.24727 | 55.36866 | 33 ft | 8 kts | 91° |
| 2026-05-05 22:05 | 25.24712 | 55.36916 | 34 ft | 6 kts | 118° |
| 2026-05-05 22:06 | 25.24683 | 55.36972 | 36 ft | 11 kts | 120° |
| 2026-05-05 22:06 | 25.24627 | 55.37074 | 36 ft | 19 kts | 121° |
| 2026-05-05 22:06 | 25.24548 | 55.37215 | 36 ft | 21 kts | 121° |
| 2026-05-05 22:06 | 25.24475 | 55.37347 | 36 ft | 18 kts | 122° |
| 2026-05-05 22:07 | 25.24411 | 55.37465 | 36 ft | 17 kts | 119° |
| 2026-05-05 22:07 | 25.24350 | 55.37580 | 37 ft | 16 kts | 121° |
| 2026-05-05 22:07 | 25.24293 | 55.37678 | 40 ft | 13 kts | 123° |
| 2026-05-05 22:07 | 25.24277 | 55.37759 | 44 ft | 9 kts | 67° |
| 2026-05-05 22:08 | 25.24315 | 55.37805 | 46 ft | 8 kts | 35° |
| 2026-05-05 22:08 | 25.24353 | 55.37833 | 46 ft | 0 kts | 33° |
| 2026-05-05 22:08 | 25.24363 | 55.37840 | 46 ft | 6 kts | 33° |
| 2026-05-05 22:08 | 25.24430 | 55.37890 | 45 ft | 13 kts | 34° |
| 2026-05-05 22:09 | 25.24497 | 55.37942 | 45 ft | 11 kts | 36° |
| 2026-05-05 22:09 | 25.24557 | 55.37989 | 45 ft | 9 kts | 34° |
| 2026-05-05 22:09 | 25.24601 | 55.38022 | 44 ft | 7 kts | 33° |
| 2026-05-05 22:09 | 25.24644 | 55.38052 | 43 ft | 7 kts | 32° |
| 2026-05-05 22:10 | 25.24687 | 55.38082 | 42 ft | 7 kts | 32° |
| 2026-05-05 22:10 | 25.24727 | 55.38110 | 42 ft | 6 kts | 32° |
| 2026-05-05 22:10 | 25.24745 | 55.38117 | 42 ft | 1 kts | 356° |
| 2026-05-05 22:10 | 25.24751 | 55.38114 | 42 ft | 0 kts | 330° |
| 2026-05-05 22:11 | 25.24758 | 55.38108 | 42 ft | 3 kts | 318° |
| 2026-05-05 22:11 | 25.24770 | 55.38092 | 42 ft | 2 kts | 304° |
| 2026-05-05 22:11 | 25.24780 | 55.38076 | 42 ft | 3 kts | 304° |
| 2026-05-05 22:11 | 25.24834 | 55.37981 | 42 ft | 39 kts | 301° |
| 2026-05-05 22:12 | 25.25106 | 55.37486 | 40 ft | 108 kts | 302° |
| 2026-05-05 22:12 | 25.25607 | 55.36585 | 33 ft | 166 kts | 302° |
| 2026-05-05 22:12 | 25.26273 | 55.35382 | 344 ft | 191 kts | 302° |
| 2026-05-05 22:12 | 25.26965 | 55.34106 | 949 ft | 201 kts | 301° |
| 2026-05-05 22:13 | 25.27671 | 55.32795 | 1647 ft | 200 kts | 304° |
| 2026-05-05 22:13 | 25.28423 | 55.31465 | 2145 ft | 206 kts | 304° |
| 2026-05-05 22:13 | 25.29002 | 55.30026 | 2718 ft | 209 kts | 283° |
| 2026-05-05 22:13 | 25.29018 | 55.28429 | 3282 ft | 211 kts | 258° |
| 2026-05-05 22:14 | 25.28496 | 55.26917 | 3843 ft | 213 kts | 245° |
| 2026-05-05 22:14 | 25.27858 | 55.25455 | 4413 ft | 213 kts | 245° |
| 2026-05-05 22:14 | 25.27231 | 55.23999 | 4963 ft | 213 kts | 246° |
| 2026-05-05 22:14 | 25.26597 | 55.22508 | 5523 ft | 213 kts | 246° |
| 2026-05-05 22:15 | 25.25976 | 55.21044 | 6036 ft | 215 kts | 246° |
| 2026-05-05 22:15 | 25.25323 | 55.19503 | 6264 ft | 232 kts | 245° |
| 2026-05-05 22:15 | 25.24395 | 55.17969 | 6552 ft | 247 kts | 223° |
| 2026-05-05 22:15 | 25.22908 | 55.16984 | 7072 ft | 254 kts | 197° |
| 2026-05-05 22:16 | 25.21130 | 55.16762 | 7552 ft | 263 kts | 178° |
| 2026-05-05 22:16 | 25.19355 | 55.17157 | 8146 ft | 267 kts | 154° |
| 2026-05-05 22:16 | 25.17846 | 55.18390 | 8692 ft | 275 kts | 129° |
| 2026-05-05 22:16 | 25.16843 | 55.20234 | 9016 ft | 291 kts | 116° |
| 2026-05-05 22:17 | 25.15957 | 55.22275 | 9639 ft | 296 kts | 116° |
| 2026-05-05 22:17 | 25.15037 | 55.24286 | 10314 ft | 299 kts | 117° |
| 2026-05-05 22:17 | 25.14071 | 55.26325 | 10980 ft | 301 kts | 117° |
| 2026-05-05 22:17 | 25.13086 | 55.28378 | 11646 ft | 304 kts | 117° |
| 2026-05-05 22:18 | 25.12101 | 55.30425 | 12304 ft | 307 kts | 117° |
| 2026-05-05 22:18 | 25.11095 | 55.32516 | 12946 ft | 310 kts | 116° |
| 2026-05-05 22:18 | 25.10121 | 55.34618 | 13576 ft | 312 kts | 112° |
| 2026-05-05 22:18 | 25.09237 | 55.36815 | 14219 ft | 315 kts | 112° |
| 2026-05-05 22:19 | 25.08351 | 55.39027 | 14873 ft | 317 kts | 112° |
| 2026-05-05 22:19 | 25.07448 | 55.41241 | 15506 ft | 319 kts | 112° |
| 2026-05-05 22:19 | 25.06546 | 55.43503 | 15951 ft | 328 kts | 111° |
| 2026-05-05 22:19 | 25.05655 | 55.45849 | 16203 ft | 343 kts | 111° |
| 2026-05-05 22:20 | 25.04712 | 55.48322 | 16451 ft | 358 kts | 111° |
| 2026-05-05 22:20 | 25.03717 | 55.50914 | 16715 ft | 373 kts | 111° |
| 2026-05-05 22:20 | 25.02686 | 55.53588 | 16974 ft | 387 kts | 111° |
| 2026-05-05 22:20 | 25.01503 | 55.56294 | 17160 ft | 402 kts | 118° |
| 2026-05-05 22:21 | 25.00062 | 55.58996 | 17431 ft | 414 kts | 119° |
| 2026-05-05 22:21 | 24.98586 | 55.61722 | 17881 ft | 421 kts | 119° |
| 2026-05-05 22:21 | 24.97068 | 55.64523 | 18396 ft | 426 kts | 119° |
| 2026-05-05 22:21 | 24.95561 | 55.67306 | 18884 ft | 430 kts | 120° |
| 2026-05-05 22:22 | 24.93986 | 55.70129 | 19376 ft | 435 kts | 124° |
| 2026-05-05 22:22 | 24.92207 | 55.72869 | 19864 ft | 440 kts | 126° |
| 2026-05-05 22:22 | 24.90409 | 55.75575 | 20339 ft | 444 kts | 126° |
| 2026-05-05 22:22 | 24.88573 | 55.78336 | 20790 ft | 449 kts | 126° |
| 2026-05-05 22:23 | 24.86698 | 55.81158 | 21253 ft | 453 kts | 126° |
| 2026-05-05 22:23 | 24.84850 | 55.83939 | 21691 ft | 457 kts | 127° |
| 2026-05-05 22:23 | 24.82918 | 55.86752 | 22139 ft | 460 kts | 131° |
| 2026-05-05 22:23 | 24.80650 | 55.89254 | 22545 ft | 463 kts | 141° |
| 2026-05-05 22:24 | 24.78045 | 55.91303 | 22988 ft | 464 kts | 150° |
| 2026-05-05 22:24 | 24.75143 | 55.92877 | 23401 ft | 465 kts | 160° |
| 2026-05-05 22:24 | 24.72059 | 55.93920 | 23814 ft | 466 kts | 169° |
| 2026-05-05 22:24 | 24.68837 | 55.94413 | 24219 ft | 466 kts | 179° |
| 2026-05-05 22:25 | 24.65599 | 55.94335 | 24621 ft | 466 kts | 188° |
| 2026-05-05 22:25 | 24.62399 | 55.93688 | 25014 ft | 466 kts | 198° |
| 2026-05-05 22:25 | 24.59377 | 55.92506 | 25424 ft | 466 kts | 207° |
| 2026-05-05 22:25 | 24.56528 | 55.90791 | 25832 ft | 466 kts | 216° |
| 2026-05-05 22:26 | 24.53964 | 55.88598 | 26233 ft | 466 kts | 225° |
| 2026-05-05 22:26 | 24.51623 | 55.86114 | 26674 ft | 467 kts | 226° |
| 2026-05-05 22:26 | 24.49307 | 55.83658 | 27120 ft | 469 kts | 226° |
| 2026-05-05 22:26 | 24.46919 | 55.81187 | 27567 ft | 471 kts | 225° |
| 2026-05-05 22:27 | 24.44502 | 55.78737 | 27989 ft | 473 kts | 225° |
| 2026-05-05 22:27 | 24.42075 | 55.76313 | 28379 ft | 476 kts | 225° |
| 2026-05-05 22:27 | 24.39582 | 55.73854 | 28755 ft | 479 kts | 224° |
| 2026-05-05 22:27 | 24.37107 | 55.71432 | 29123 ft | 482 kts | 224° |
| 2026-05-05 22:28 | 24.34600 | 55.68993 | 29619 ft | 482 kts | 224° |
| 2026-05-05 22:28 | 24.32098 | 55.66569 | 30290 ft | 477 kts | 224° |
| 2026-05-05 22:28 | 24.29610 | 55.64170 | 31029 ft | 471 kts | 223° |
| 2026-05-05 22:28 | 24.27009 | 55.62046 | 31654 ft | 469 kts | 215° |
| 2026-05-05 22:29 | 24.24116 | 55.60348 | 32150 ft | 470 kts | 207° |
| 2026-05-05 22:29 | 24.21060 | 55.59145 | 32536 ft | 474 kts | 200° |
| 2026-05-05 22:29 | 24.17862 | 55.58172 | 32973 ft | 473 kts | 199° |
| 2026-05-05 22:29 | 24.14709 | 55.57237 | 33458 ft | 472 kts | 199° |
| 2026-05-05 22:30 | 24.11514 | 55.56289 | 33810 ft | 473 kts | 199° |
| 2026-05-05 22:30 | 24.05193 | 55.54409 | 33817 ft | 469 kts | 199° |
| 2026-05-05 22:31 | 23.98914 | 55.52541 | 33824 ft | 469 kts | 199° |
| 2026-05-05 22:31 | 23.92571 | 55.50658 | 33812 ft | 470 kts | 199° |
| 2026-05-05 22:32 | 23.86256 | 55.48785 | 33814 ft | 470 kts | 199° |
| 2026-05-05 22:32 | 23.79927 | 55.46907 | 33808 ft | 470 kts | 199° |
| 2026-05-05 22:33 | 23.73628 | 55.45038 | 33805 ft | 470 kts | 199° |
| 2026-05-05 22:33 | 23.67309 | 55.43163 | 33790 ft | 469 kts | 199° |
| 2026-05-05 22:34 | 23.60984 | 55.41289 | 33785 ft | 469 kts | 199° |
| 2026-05-05 22:34 | 23.54685 | 55.39426 | 33782 ft | 469 kts | 198° |
| 2026-05-05 22:35 | 23.48393 | 55.37564 | 33788 ft | 471 kts | 198° |
| 2026-05-05 22:35 | 23.42081 | 55.35698 | 33782 ft | 469 kts | 198° |
| 2026-05-05 22:36 | 23.35734 | 55.33823 | 33778 ft | 471 kts | 198° |
| 2026-05-05 22:36 | 23.29402 | 55.31955 | 33782 ft | 470 kts | 198° |
| 2026-05-05 22:37 | 23.23105 | 55.30098 | 33783 ft | 470 kts | 198° |
| 2026-05-05 22:37 | 23.16772 | 55.28233 | 33771 ft | 469 kts | 198° |
| 2026-05-05 22:38 | 23.10710 | 55.25773 | 33772 ft | 464 kts | 212° |
| 2026-05-05 22:38 | 23.05622 | 55.21518 | 33774 ft | 460 kts | 228° |
| 2026-05-05 22:39 | 23.01993 | 55.15895 | 33768 ft | 457 kts | 245° |
| 2026-05-05 22:39 | 23.00025 | 55.09386 | 33780 ft | 457 kts | 257° |
| 2026-05-05 22:40 | 22.98700 | 55.02644 | 33789 ft | 458 kts | 258° |
| 2026-05-05 22:40 | 22.97376 | 54.95905 | 33788 ft | 456 kts | 258° |
| 2026-05-05 22:41 | 22.96058 | 54.89232 | 33785 ft | 454 kts | 257° |
| 2026-05-05 22:41 | 22.94735 | 54.82554 | 33784 ft | 456 kts | 257° |
| 2026-05-05 22:42 | 22.93397 | 54.75825 | 33784 ft | 456 kts | 257° |
| 2026-05-05 22:42 | 22.92066 | 54.69145 | 33781 ft | 457 kts | 258° |
| 2026-05-05 22:43 | 22.90718 | 54.62398 | 33781 ft | 457 kts | 257° |
| 2026-05-05 22:43 | 22.89370 | 54.55668 | 33781 ft | 456 kts | 258° |
| 2026-05-05 22:44 | 22.88023 | 54.48959 | 33778 ft | 458 kts | 258° |
| 2026-05-05 22:44 | 22.86670 | 54.42233 | 33773 ft | 457 kts | 257° |
| 2026-05-05 22:45 | 22.85317 | 54.35524 | 33767 ft | 457 kts | 257° |
| 2026-05-05 22:45 | 22.83964 | 54.28828 | 33773 ft | 457 kts | 257° |
| 2026-05-05 22:46 | 22.82596 | 54.22077 | 33770 ft | 456 kts | 257° |
| 2026-05-05 22:46 | 22.81237 | 54.15383 | 33771 ft | 456 kts | 257° |
| 2026-05-05 22:47 | 22.79878 | 54.08703 | 33772 ft | 456 kts | 257° |
| 2026-05-05 22:47 | 22.78511 | 54.02004 | 33771 ft | 456 kts | 257° |
| 2026-05-05 22:48 | 22.77170 | 53.95294 | 33773 ft | 458 kts | 258° |
| 2026-05-05 22:48 | 22.75868 | 53.88589 | 33772 ft | 457 kts | 258° |
| 2026-05-05 22:49 | 22.74551 | 53.81833 | 33776 ft | 457 kts | 258° |
| 2026-05-05 22:49 | 22.73241 | 53.75133 | 33774 ft | 456 kts | 258° |
| 2026-05-05 22:50 | 22.71927 | 53.68435 | 33774 ft | 457 kts | 258° |
| 2026-05-05 22:50 | 22.70600 | 53.61685 | 33776 ft | 457 kts | 258° |
| 2026-05-05 22:51 | 22.69281 | 53.54995 | 33781 ft | 456 kts | 258° |
| 2026-05-05 22:51 | 22.67961 | 53.48315 | 33781 ft | 457 kts | 258° |
| 2026-05-05 22:52 | 22.66629 | 53.41590 | 33779 ft | 456 kts | 258° |
| 2026-05-05 22:52 | 22.65300 | 53.34899 | 33772 ft | 458 kts | 257° |
| 2026-05-05 22:53 | 22.63963 | 53.28180 | 33772 ft | 457 kts | 257° |
| 2026-05-05 22:53 | 22.62622 | 53.21458 | 33767 ft | 457 kts | 257° |
| 2026-05-05 22:54 | 22.61282 | 53.14752 | 33769 ft | 457 kts | 257° |
| 2026-05-05 22:54 | 22.59934 | 53.08026 | 33767 ft | 457 kts | 257° |
| 2026-05-05 22:55 | 22.58591 | 53.01340 | 33765 ft | 456 kts | 257° |
| 2026-05-05 22:55 | 22.57240 | 52.94630 | 33764 ft | 457 kts | 257° |
| 2026-05-05 22:56 | 22.55891 | 52.87940 | 33764 ft | 457 kts | 257° |
| 2026-05-05 22:56 | 22.54540 | 52.81256 | 33764 ft | 457 kts | 257° |
| 2026-05-05 22:57 | 22.53180 | 52.74548 | 33764 ft | 457 kts | 257° |
| 2026-05-05 22:57 | 22.51822 | 52.67858 | 33764 ft | 457 kts | 257° |
| 2026-05-05 22:58 | 22.50454 | 52.61139 | 33765 ft | 457 kts | 257° |
| 2026-05-05 22:58 | 22.49085 | 52.54426 | 33764 ft | 458 kts | 257° |
| 2026-05-05 22:59 | 22.47720 | 52.47752 | 33766 ft | 457 kts | 257° |
| 2026-05-05 22:59 | 22.46341 | 52.41021 | 33769 ft | 458 kts | 257° |
| 2026-05-05 23:00 | 22.44273 | 52.30959 | 33774 ft | 458 kts | 257° |
| 2026-05-05 23:00 | 22.42894 | 52.24263 | 33772 ft | 458 kts | 257° |
| 2026-05-05 23:01 | 22.41506 | 52.17545 | 33771 ft | 457 kts | 257° |
| 2026-05-05 23:01 | 22.40799 | 52.10756 | 33764 ft | 459 kts | 271° |
| 2026-05-05 23:02 | 22.41354 | 52.03917 | 33764 ft | 460 kts | 274° |
| 2026-05-05 23:02 | 22.41962 | 51.97054 | 33761 ft | 459 kts | 274° |
| 2026-05-05 23:03 | 22.42561 | 51.90193 | 33761 ft | 460 kts | 274° |
| 2026-05-05 23:03 | 22.43156 | 51.83300 | 33760 ft | 459 kts | 274° |
| 2026-05-05 23:04 | 22.43741 | 51.76467 | 33758 ft | 459 kts | 274° |
| 2026-05-05 23:04 | 22.44327 | 51.69593 | 33758 ft | 459 kts | 274° |
| 2026-05-05 23:05 | 22.44907 | 51.62733 | 33758 ft | 459 kts | 274° |
| 2026-05-05 23:05 | 22.45484 | 51.55871 | 33759 ft | 459 kts | 274° |
| 2026-05-05 23:06 | 22.46058 | 51.49017 | 33762 ft | 459 kts | 274° |
| 2026-05-05 23:06 | 22.46626 | 51.42192 | 33760 ft | 459 kts | 274° |
| 2026-05-05 23:07 | 22.47196 | 51.35311 | 33759 ft | 459 kts | 274° |
| 2026-05-05 23:07 | 22.47759 | 51.28472 | 33764 ft | 458 kts | 273° |
| 2026-05-05 23:08 | 22.48319 | 51.21633 | 33767 ft | 458 kts | 273° |
| 2026-05-05 23:08 | 22.48875 | 51.14817 | 33768 ft | 457 kts | 273° |
| 2026-05-05 23:09 | 22.49430 | 51.07972 | 33766 ft | 457 kts | 273° |
| 2026-05-05 23:09 | 22.49980 | 51.01148 | 33761 ft | 458 kts | 273° |
| 2026-05-05 23:10 | 22.50532 | 50.94273 | 33760 ft | 458 kts | 273° |
| 2026-05-05 23:10 | 22.51077 | 50.87446 | 33775 ft | 458 kts | 273° |
| 2026-05-05 23:11 | 22.51620 | 50.80599 | 33783 ft | 459 kts | 273° |
| 2026-05-05 23:11 | 22.52159 | 50.73776 | 33776 ft | 458 kts | 273° |
| 2026-05-05 23:12 | 22.52696 | 50.66933 | 33775 ft | 458 kts | 273° |
| 2026-05-05 23:12 | 22.53231 | 50.60084 | 33777 ft | 457 kts | 273° |
| 2026-05-05 23:13 | 22.53762 | 50.53255 | 33781 ft | 457 kts | 273° |
| 2026-05-05 23:13 | 22.54289 | 50.46431 | 33780 ft | 457 kts | 273° |
| 2026-05-05 23:14 | 22.54814 | 50.39594 | 33775 ft | 457 kts | 273° |
| 2026-05-05 23:14 | 22.55339 | 50.32716 | 33785 ft | 457 kts | 272° |
| 2026-05-05 23:15 | 22.55859 | 50.25866 | 33783 ft | 457 kts | 272° |
| 2026-05-05 23:15 | 22.56375 | 50.19040 | 33781 ft | 458 kts | 272° |
| 2026-05-05 23:16 | 22.56890 | 50.12175 | 33780 ft | 457 kts | 272° |
| 2026-05-05 23:16 | 22.57400 | 50.05349 | 33779 ft | 458 kts | 272° |
| 2026-05-05 23:17 | 22.57908 | 49.98499 | 33781 ft | 458 kts | 272° |
| 2026-05-05 23:17 | 22.58413 | 49.91654 | 33780 ft | 457 kts | 272° |
| 2026-05-05 23:18 | 22.58916 | 49.84809 | 33780 ft | 457 kts | 272° |
| 2026-05-05 23:18 | 22.59412 | 49.78000 | 33781 ft | 457 kts | 272° |
| 2026-05-05 23:19 | 22.59910 | 49.71139 | 33782 ft | 456 kts | 272° |
| 2026-05-05 23:19 | 22.60402 | 49.64315 | 33784 ft | 457 kts | 272° |
| 2026-05-05 23:20 | 22.60892 | 49.57476 | 33784 ft | 456 kts | 272° |
| 2026-05-05 23:20 | 22.61379 | 49.50642 | 33786 ft | 456 kts | 272° |
| 2026-05-05 23:21 | 22.61861 | 49.43832 | 33791 ft | 456 kts | 272° |
| 2026-05-05 23:21 | 22.62342 | 49.36994 | 33796 ft | 456 kts | 272° |
| 2026-05-05 23:22 | 22.62823 | 49.30117 | 33805 ft | 455 kts | 272° |
| 2026-05-05 23:22 | 22.63296 | 49.23317 | 33804 ft | 455 kts | 272° |
| 2026-05-05 23:23 | 22.63768 | 49.16489 | 33807 ft | 454 kts | 272° |
| 2026-05-05 23:23 | 22.64233 | 49.09705 | 33802 ft | 455 kts | 272° |
| 2026-05-05 23:24 | 22.64699 | 49.02878 | 33802 ft | 456 kts | 272° |
| 2026-05-05 23:24 | 22.65161 | 48.96064 | 33795 ft | 456 kts | 272° |
| 2026-05-05 23:25 | 22.65620 | 48.89261 | 33795 ft | 455 kts | 272° |
| 2026-05-05 23:25 | 22.66077 | 48.82441 | 33799 ft | 456 kts | 272° |
| 2026-05-05 23:26 | 22.66530 | 48.75623 | 33803 ft | 455 kts | 272° |
| 2026-05-05 23:26 | 22.66984 | 48.68757 | 33803 ft | 455 kts | 272° |
| 2026-05-05 23:27 | 22.67430 | 48.61968 | 33815 ft | 455 kts | 272° |
| 2026-05-05 23:27 | 22.67876 | 48.55123 | 33816 ft | 455 kts | 272° |
| 2026-05-05 23:28 | 22.68315 | 48.48354 | 33822 ft | 455 kts | 272° |
| 2026-05-05 23:28 | 22.68755 | 48.41522 | 33821 ft | 456 kts | 272° |
| 2026-05-05 23:29 | 22.69192 | 48.34684 | 33819 ft | 455 kts | 271° |
| 2026-05-05 23:29 | 22.69627 | 48.27834 | 33823 ft | 456 kts | 271° |
| 2026-05-05 23:30 | 22.70058 | 48.21005 | 33825 ft | 456 kts | 271° |
| 2026-05-05 23:30 | 22.70484 | 48.14214 | 33833 ft | 455 kts | 271° |
| 2026-05-05 23:31 | 22.70910 | 48.07362 | 33840 ft | 457 kts | 271° |
| 2026-05-05 23:31 | 22.71333 | 48.00526 | 33845 ft | 456 kts | 271° |
| 2026-05-05 23:32 | 22.71752 | 47.93698 | 33852 ft | 456 kts | 271° |
| 2026-05-05 23:32 | 22.72170 | 47.86843 | 33855 ft | 456 kts | 271° |
| 2026-05-05 23:33 | 22.72583 | 47.80027 | 33861 ft | 456 kts | 271° |
| 2026-05-05 23:33 | 22.72993 | 47.73197 | 33861 ft | 455 kts | 271° |
| 2026-05-05 23:34 | 22.73401 | 47.66360 | 33868 ft | 455 kts | 271° |
| 2026-05-05 23:34 | 22.73805 | 47.59538 | 33875 ft | 455 kts | 271° |
| 2026-05-05 23:35 | 22.74207 | 47.52705 | 33877 ft | 455 kts | 271° |
| 2026-05-05 23:35 | 22.74603 | 47.45919 | 33884 ft | 455 kts | 271° |
| 2026-05-05 23:36 | 22.75000 | 47.39087 | 33890 ft | 455 kts | 271° |
| 2026-05-05 23:36 | 22.75395 | 47.32219 | 33906 ft | 454 kts | 271° |
| 2026-05-05 23:37 | 22.75783 | 47.25415 | 33914 ft | 454 kts | 270° |
| 2026-05-05 23:37 | 22.76169 | 47.18615 | 33920 ft | 454 kts | 270° |
| 2026-05-05 23:38 | 22.76663 | 47.11799 | 33924 ft | 454 kts | 272° |
| 2026-05-05 23:38 | 22.77213 | 47.05024 | 33927 ft | 454 kts | 272° |
| 2026-05-05 23:39 | 22.77755 | 46.98247 | 33937 ft | 453 kts | 272° |
| 2026-05-05 23:39 | 22.78293 | 46.91445 | 33948 ft | 453 kts | 272° |
| 2026-05-05 23:40 | 22.78824 | 46.84671 | 33951 ft | 453 kts | 272° |
| 2026-05-05 23:40 | 22.79353 | 46.77873 | 33958 ft | 452 kts | 272° |
| 2026-05-05 23:41 | 22.79873 | 46.71134 | 33963 ft | 452 kts | 272° |
| 2026-05-05 23:41 | 22.80394 | 46.64361 | 33977 ft | 450 kts | 272° |
| 2026-05-05 23:42 | 22.80907 | 46.57645 | 33989 ft | 450 kts | 271° |
| 2026-05-05 23:42 | 22.81418 | 46.50909 | 34004 ft | 448 kts | 272° |
| 2026-05-05 23:43 | 22.81926 | 46.44174 | 34013 ft | 450 kts | 272° |
| 2026-05-05 23:43 | 22.82432 | 46.37443 | 34018 ft | 448 kts | 272° |
| 2026-05-05 23:44 | 22.82933 | 46.30694 | 34032 ft | 448 kts | 271° |
| 2026-05-05 23:44 | 22.83424 | 46.24030 | 34037 ft | 447 kts | 271° |
| 2026-05-05 23:45 | 22.83916 | 46.17334 | 34011 ft | 446 kts | 271° |
| 2026-05-05 23:45 | 22.84404 | 46.10642 | 33986 ft | 446 kts | 271° |
| 2026-05-05 23:46 | 22.84890 | 46.03945 | 33967 ft | 446 kts | 271° |
| 2026-05-05 23:46 | 22.85370 | 45.97279 | 33942 ft | 444 kts | 271° |
| 2026-05-05 23:47 | 22.85847 | 45.90636 | 33943 ft | 443 kts | 271° |
| 2026-05-05 23:47 | 22.86321 | 45.83980 | 33943 ft | 443 kts | 271° |
| 2026-05-05 23:48 | 22.86791 | 45.77350 | 33942 ft | 442 kts | 271° |
| 2026-05-05 23:48 | 22.87260 | 45.70691 | 33947 ft | 442 kts | 271° |
| 2026-05-05 23:49 | 22.87726 | 45.64040 | 33949 ft | 443 kts | 271° |
| 2026-05-05 23:49 | 22.88187 | 45.57413 | 33957 ft | 442 kts | 271° |
| 2026-05-05 23:50 | 22.88647 | 45.50769 | 33962 ft | 442 kts | 271° |
| 2026-05-05 23:50 | 22.89101 | 45.44155 | 33969 ft | 442 kts | 271° |
| 2026-05-05 23:51 | 22.89553 | 45.37553 | 33968 ft | 440 kts | 271° |
| 2026-05-05 23:51 | 22.90004 | 45.30918 | 33987 ft | 439 kts | 271° |
| 2026-05-05 23:52 | 22.90447 | 45.24345 | 33994 ft | 441 kts | 271° |
| 2026-05-05 23:52 | 22.90892 | 45.17720 | 33995 ft | 440 kts | 270° |
| 2026-05-05 23:53 | 22.91330 | 45.11144 | 33997 ft | 440 kts | 271° |
| 2026-05-05 23:53 | 22.91766 | 45.04555 | 33999 ft | 440 kts | 270° |
| 2026-05-05 23:54 | 22.92200 | 44.97953 | 33998 ft | 440 kts | 270° |
| 2026-05-05 23:54 | 22.92632 | 44.91336 | 34002 ft | 440 kts | 270° |
| 2026-05-05 23:55 | 22.93061 | 44.84733 | 34010 ft | 439 kts | 270° |
| 2026-05-05 23:55 | 22.93484 | 44.78159 | 34010 ft | 440 kts | 271° |
| 2026-05-05 23:56 | 22.93907 | 44.71563 | 34022 ft | 438 kts | 270° |
| 2026-05-05 23:56 | 22.94837 | 44.65029 | 34015 ft | 445 kts | 283° |
| 2026-05-05 23:57 | 22.96785 | 44.58644 | 34013 ft | 445 kts | 284° |
| 2026-05-05 23:57 | 22.98748 | 44.52306 | 34012 ft | 446 kts | 284° |
| 2026-05-05 23:58 | 23.00711 | 44.45946 | 34021 ft | 446 kts | 284° |
| 2026-05-05 23:58 | 23.02681 | 44.39551 | 34032 ft | 446 kts | 284° |
| 2026-05-05 23:59 | 23.04644 | 44.33165 | 34052 ft | 446 kts | 283° |
| 2026-05-05 23:59 | 23.06605 | 44.26775 | 34057 ft | 447 kts | 283° |
| 2026-05-06 00:00 | 23.08546 | 44.20439 | 34062 ft | 444 kts | 283° |
| 2026-05-06 00:00 | 23.10502 | 44.14044 | 34060 ft | 446 kts | 283° |
| 2026-05-06 00:01 | 23.12437 | 44.07708 | 34068 ft | 443 kts | 283° |
| 2026-05-06 00:01 | 23.14384 | 44.01320 | 34058 ft | 444 kts | 283° |
| 2026-05-06 00:02 | 23.16316 | 43.94973 | 34047 ft | 443 kts | 283° |
| 2026-05-06 00:02 | 23.18244 | 43.88627 | 34075 ft | 444 kts | 283° |
| 2026-05-06 00:03 | 23.20158 | 43.82317 | 34073 ft | 443 kts | 283° |
| 2026-05-06 00:03 | 23.22073 | 43.75996 | 34077 ft | 443 kts | 283° |
| 2026-05-06 00:04 | 23.23997 | 43.69635 | 34076 ft | 442 kts | 283° |
| 2026-05-06 00:04 | 23.25909 | 43.63300 | 34073 ft | 443 kts | 283° |
| 2026-05-06 00:05 | 23.28768 | 43.53813 | 34074 ft | 442 kts | 283° |
| 2026-05-06 00:06 | 23.30671 | 43.47485 | 34077 ft | 442 kts | 283° |
| 2026-05-06 00:06 | 23.32580 | 43.41128 | 34073 ft | 442 kts | 283° |
| 2026-05-06 00:07 | 23.34484 | 43.34776 | 34062 ft | 441 kts | 282° |
| 2026-05-06 00:07 | 23.36385 | 43.28425 | 34081 ft | 442 kts | 282° |
| 2026-05-06 00:08 | 23.38272 | 43.22111 | 34084 ft | 442 kts | 282° |
| 2026-05-06 00:08 | 23.40167 | 43.15762 | 34082 ft | 440 kts | 282° |
| 2026-05-06 00:09 | 23.42057 | 43.09407 | 34080 ft | 440 kts | 282° |
| 2026-05-06 00:09 | 23.43934 | 43.03077 | 34082 ft | 440 kts | 282° |
| 2026-05-06 00:10 | 23.45800 | 42.96775 | 34079 ft | 441 kts | 282° |
| 2026-05-06 00:10 | 23.47670 | 42.90451 | 34077 ft | 439 kts | 282° |
| 2026-05-06 00:11 | 23.49547 | 42.84091 | 34076 ft | 439 kts | 282° |
| 2026-05-06 00:11 | 23.51398 | 42.77811 | 34074 ft | 439 kts | 282° |
| 2026-05-06 00:12 | 23.53262 | 42.71484 | 34073 ft | 439 kts | 282° |
| 2026-05-06 00:12 | 23.55133 | 42.65131 | 34073 ft | 440 kts | 282° |
| 2026-05-06 00:13 | 23.56984 | 42.58836 | 34074 ft | 439 kts | 282° |
| 2026-05-06 00:13 | 23.58844 | 42.52498 | 34076 ft | 438 kts | 282° |
| 2026-05-06 00:14 | 23.60693 | 42.46189 | 34076 ft | 437 kts | 282° |
| 2026-05-06 00:14 | 23.62530 | 42.39908 | 34077 ft | 437 kts | 282° |
| 2026-05-06 00:15 | 23.64368 | 42.33614 | 34088 ft | 434 kts | 282° |
| 2026-05-06 00:15 | 23.66203 | 42.27319 | 34089 ft | 434 kts | 282° |
| 2026-05-06 00:16 | 23.68019 | 42.21059 | 34089 ft | 433 kts | 281° |
| 2026-05-06 00:16 | 23.69827 | 42.14813 | 34086 ft | 433 kts | 281° |
| 2026-05-06 00:17 | 23.71643 | 42.08532 | 34084 ft | 434 kts | 281° |
| 2026-05-06 00:17 | 23.73437 | 42.02317 | 34079 ft | 433 kts | 281° |
| 2026-05-06 00:18 | 23.75244 | 41.96051 | 34080 ft | 434 kts | 281° |
| 2026-05-06 00:18 | 23.77055 | 41.89788 | 34081 ft | 433 kts | 281° |
| 2026-05-06 00:19 | 23.78861 | 41.83530 | 34078 ft | 432 kts | 281° |
| 2026-05-06 00:19 | 23.80660 | 41.77285 | 34078 ft | 433 kts | 281° |
| 2026-05-06 00:20 | 23.82449 | 41.71061 | 34076 ft | 431 kts | 281° |
| 2026-05-06 00:20 | 23.84246 | 41.64793 | 34077 ft | 430 kts | 281° |
| 2026-05-06 00:21 | 23.86031 | 41.58556 | 34075 ft | 430 kts | 281° |
| 2026-05-06 00:21 | 23.87813 | 41.52308 | 34075 ft | 430 kts | 281° |
| 2026-05-06 00:22 | 23.89578 | 41.46095 | 34075 ft | 429 kts | 281° |
| 2026-05-06 00:22 | 23.91333 | 41.39903 | 34073 ft | 429 kts | 281° |
| 2026-05-06 00:23 | 23.93108 | 41.33635 | 34082 ft | 430 kts | 281° |
| 2026-05-06 00:23 | 23.94863 | 41.27448 | 34085 ft | 429 kts | 281° |
| 2026-05-06 00:24 | 23.96624 | 41.21230 | 34078 ft | 430 kts | 280° |
| 2026-05-06 00:24 | 23.98382 | 41.15007 | 34072 ft | 430 kts | 281° |
| 2026-05-06 00:25 | 24.00139 | 41.08782 | 34067 ft | 428 kts | 281° |
| 2026-05-06 00:25 | 24.01886 | 41.02580 | 34065 ft | 429 kts | 280° |